Time,TemperatureF,DewpointF,PressureIn,WindDirection,WindDirectionDegrees,WindSpeedMPH,WindSpeedGustMPH,Humidity,HourlyPrecipIn,Conditions,Clouds,dailyrainin,SoftwareType,DateUTC
2013-03-04 00:01:00,23.0,14.0,29.95,North,359,0.0,0.0,68,0.00,,CLR,0.00,VWS V14.01,2013-03-04 05:01:00,
2013-03-04 00:05:00,23.0,14.0,29.95,North,359,0.0,0.0,68,0.00,,CLR,0.00,VWS V14.01,2013-03-04 05:05:00,
2013-03-04 00:12:00,22.9,13.9,29.95,North,359,0.0,1.0,68,0.00,,CLR,0.00,VWS V14.01,2013-03-04 05:12:00,
2013-03-04 00:16:00,22.9,14.3,29.95,North,359,0.0,1.0,69,0.00,,CLR,0.00,VWS V14.01,2013-03-04 05:16:00,
2013-03-04 00:21:00,22.7,14.1,29.95,North,359,0.0,1.0,69,0.00,,CLR,0.00,VWS V14.01,2013-03-04 05:21:00,
2013-03-04 00:31:00,22.5,14.2,29.96,North,359,0.0,0.0,70,0.00,,CLR,0.00,VWS V14.01,2013-03-04 05:31:00,
2013-03-04 00:36:00,22.2,14.2,29.96,North,359,0.0,0.0,71,0.00,,CLR,0.00,VWS V14.01,2013-03-04 05:36:00,
2013-03-04 00:41:00,22.1,14.5,29.96,North,359,0.0,0.0,72,0.00,,CLR,0.00,VWS V14.01,2013-03-04 05:41:00,
2013-03-04 00:46:00,22.1,14.5,29.96,North,359,0.0,0.0,72,0.00,,CLR,0.00,VWS V14.01,2013-03-04 05:46:00,
2013-03-04 00:51:00,22.1,14.5,29.96,North,359,0.0,0.0,72,0.00,,CLR,0.00,VWS V14.01,2013-03-04 05:51:00,
2013-03-04 00:56:00,21.9,14.3,29.96,North,359,0.0,0.0,72,0.00,,CLR,0.00,VWS V14.01,2013-03-04 05:56:00,
2013-03-04 01:01:00,21.9,14.3,29.95,North,359,0.0,0.0,72,0.00,,CLR,0.00,VWS V14.01,2013-03-04 06:01:00,
2013-03-04 01:06:00,21.9,14.3,29.95,North,359,0.0,0.0,72,0.00,,CLR,0.00,VWS V14.01,2013-03-04 06:06:00,
2013-03-04 01:11:00,21.9,14.3,29.95,North,359,0.0,0.0,72,0.00,,CLR,0.00,VWS V14.01,2013-03-04 06:11:00,
2013-03-04 01:16:00,21.8,14.2,29.95,North,359,0.0,0.0,72,0.00,,CLR,0.00,VWS V14.01,2013-03-04 06:16:00,
2013-03-04 01:21:00,21.6,13.7,29.95,North,359,0.0,0.0,71,0.00,,CLR,0.00,VWS V14.01,2013-03-04 06:21:00,
2013-03-04 01:26:00,21.4,13.8,29.95,North,359,0.0,0.0,72,0.00,,CLR,0.00,VWS V14.01,2013-03-04 06:26:00,
2013-03-04 01:31:00,21.4,13.8,29.95,North,359,0.0,0.0,72,0.00,,CLR,0.00,VWS V14.01,2013-03-04 06:31:00,
2013-03-04 01:36:00,21.4,13.8,29.95,North,359,0.0,1.0,72,0.00,,CLR,0.00,VWS V14.01,2013-03-04 06:36:00,
2013-03-04 01:41:00,21.4,13.8,29.95,North,359,0.0,0.0,72,0.00,,CLR,0.00,VWS V14.01,2013-03-04 06:41:00,
2013-03-04 01:46:00,21.3,13.7,29.95,North,359,0.0,0.0,72,0.00,,CLR,0.00,VWS V14.01,2013-03-04 06:46:00,
2013-03-04 01:51:00,21.1,13.8,29.95,North,359,0.0,0.0,73,0.00,,CLR,0.00,VWS V14.01,2013-03-04 06:51:00,
2013-03-04 02:01:00,21.0,13.7,29.95,North,359,0.0,1.0,73,0.00,,CLR,0.00,VWS V14.01,2013-03-04 07:01:00,
2013-03-04 02:06:00,20.6,13.6,29.95,North,359,0.0,0.0,74,0.00,,CLR,0.00,VWS V14.01,2013-03-04 07:06:00,
2013-03-04 02:16:00,20.2,13.6,29.96,North,359,0.0,0.0,75,0.00,,CLR,0.00,VWS V14.01,2013-03-04 07:16:00,
2013-03-04 02:21:00,20.0,13.7,29.96,North,359,0.0,0.0,76,0.00,,CLR,0.00,VWS V14.01,2013-03-04 07:21:00,
2013-03-04 02:26:00,19.9,13.9,29.96,North,359,0.0,0.0,77,0.00,,CLR,0.00,VWS V14.01,2013-03-04 07:26:00,
2013-03-04 02:31:00,19.9,13.9,29.96,North,359,0.0,0.0,77,0.00,,CLR,0.00,VWS V14.01,2013-03-04 07:31:00,
2013-03-04 02:40:00,19.7,14.0,29.96,North,359,0.0,1.0,78,0.00,,CLR,0.00,VWS V14.01,2013-03-04 07:40:00,
2013-03-04 02:46:00,19.5,13.8,29.96,North,359,0.0,0.0,78,0.00,,CLR,0.00,VWS V14.01,2013-03-04 07:46:00,
2013-03-04 02:55:00,19.4,14.0,29.96,North,359,0.0,1.0,79,0.00,,CLR,0.00,VWS V14.01,2013-03-04 07:55:00,
2013-03-04 03:01:00,19.4,14.0,29.96,North,359,0.0,0.0,79,0.00,,CLR,0.00,VWS V14.01,2013-03-04 08:01:00,
2013-03-04 03:06:00,19.4,14.2,29.96,North,359,0.0,0.0,80,0.00,,CLR,0.00,VWS V14.01,2013-03-04 08:06:00,
2013-03-04 03:11:00,19.2,14.1,29.96,North,359,0.0,1.0,80,0.00,,CLR,0.00,VWS V14.01,2013-03-04 08:11:00,
2013-03-04 03:20:00,19.1,14.2,29.97,North,359,0.0,1.0,81,0.00,,CLR,0.00,VWS V14.01,2013-03-04 08:20:00,
2013-03-04 03:25:00,19.1,14.2,29.97,North,359,0.0,0.0,81,0.00,,CLR,0.00,VWS V14.01,2013-03-04 08:25:00,
2013-03-04 03:30:00,19.1,14.2,29.97,North,359,0.0,0.0,81,0.00,,CLR,0.00,VWS V14.01,2013-03-04 08:30:00,
2013-03-04 03:35:00,18.9,14.0,29.97,North,359,0.0,1.0,81,0.00,,CLR,0.00,VWS V14.01,2013-03-04 08:35:00,
2013-03-04 03:40:00,18.8,14.2,29.97,North,359,0.0,1.0,82,0.00,,CLR,0.00,VWS V14.01,2013-03-04 08:40:00,
2013-03-04 03:45:00,18.9,14.3,29.97,North,359,1.0,1.0,82,0.00,,CLR,0.00,VWS V14.01,2013-03-04 08:45:00,
2013-03-04 03:51:00,19.1,14.5,29.97,North,359,0.0,1.0,82,0.00,,CLR,0.00,VWS V14.01,2013-03-04 08:51:00,
2013-03-04 04:01:00,18.9,14.3,29.97,North,359,0.0,0.0,82,0.00,,CLR,0.00,VWS V14.01,2013-03-04 09:01:00,
2013-03-04 04:06:00,18.9,14.6,29.97,North,359,0.0,0.0,83,0.00,,CLR,0.00,VWS V14.01,2013-03-04 09:06:00,
2013-03-04 04:11:00,18.9,14.6,29.97,North,359,0.0,0.0,83,0.00,,CLR,0.00,VWS V14.01,2013-03-04 09:11:00,
2013-03-04 04:16:00,19.2,14.9,29.96,North,359,0.0,0.0,83,0.00,,CLR,0.00,VWS V14.01,2013-03-04 09:16:00,
2013-03-04 04:21:00,19.2,14.9,29.96,North,359,0.0,0.0,83,0.00,,CLR,0.00,VWS V14.01,2013-03-04 09:21:00,
2013-03-04 04:31:00,19.2,15.2,29.97,North,359,0.0,0.0,84,0.00,,CLR,0.00,VWS V14.01,2013-03-04 09:31:00,
2013-03-04 04:36:00,19.4,15.6,29.97,North,359,0.0,0.0,85,0.00,,CLR,0.00,VWS V14.01,2013-03-04 09:36:00,
2013-03-04 04:41:00,19.4,15.4,29.97,North,359,0.0,0.0,84,0.00,,CLR,0.00,VWS V14.01,2013-03-04 09:41:00,
2013-03-04 04:51:00,19.1,15.1,29.97,North,359,0.0,0.0,84,0.00,,CLR,0.00,VWS V14.01,2013-03-04 09:51:00,
2013-03-04 04:56:00,19.1,15.3,29.97,North,359,0.0,0.0,85,0.00,,CLR,0.00,VWS V14.01,2013-03-04 09:56:00,
2013-03-04 05:06:00,18.6,14.9,29.97,North,359,0.0,0.0,85,0.00,,CLR,0.00,VWS V14.01,2013-03-04 10:06:00,
2013-03-04 05:16:00,18.6,14.9,29.98,North,359,0.0,0.0,85,0.00,,CLR,0.00,VWS V14.01,2013-03-04 10:16:00,
2013-03-04 05:26:00,18.4,14.6,29.98,North,359,0.0,0.0,85,0.00,,CLR,0.00,VWS V14.01,2013-03-04 10:26:00,
2013-03-04 05:36:00,18.4,14.6,29.98,North,359,0.0,0.0,85,0.00,,CLR,0.00,VWS V14.01,2013-03-04 10:36:00,
2013-03-04 05:41:00,18.3,14.6,29.98,North,359,0.0,0.0,85,0.00,,CLR,0.00,VWS V14.01,2013-03-04 10:41:00,
2013-03-04 05:46:00,18.1,14.4,29.98,North,359,0.0,0.0,85,0.00,,CLR,0.00,VWS V14.01,2013-03-04 10:46:00,
2013-03-04 05:51:00,18.3,14.8,29.98,North,359,0.0,0.0,86,0.00,,CLR,0.00,VWS V14.01,2013-03-04 10:51:00,
2013-03-04 05:56:00,18.3,14.6,29.98,North,359,0.0,0.0,85,0.00,,CLR,0.00,VWS V14.01,2013-03-04 10:56:00,
2013-03-04 06:01:00,18.3,14.6,29.98,North,359,0.0,0.0,85,0.00,,CLR,0.00,VWS V14.01,2013-03-04 11:01:00,
2013-03-04 06:06:00,18.0,14.3,29.98,North,359,0.0,0.0,85,0.00,,CLR,0.00,VWS V14.01,2013-03-04 11:06:00,
2013-03-04 06:11:00,18.0,14.5,29.98,North,359,0.0,0.0,86,0.00,,CLR,0.00,VWS V14.01,2013-03-04 11:11:00,
2013-03-04 06:16:00,18.1,14.6,29.98,North,359,0.0,0.0,86,0.00,,CLR,0.00,VWS V14.01,2013-03-04 11:16:00,
2013-03-04 06:21:00,18.1,14.6,29.98,North,359,0.0,0.0,86,0.00,,CLR,0.00,VWS V14.01,2013-03-04 11:21:00,
2013-03-04 06:26:00,18.1,14.6,29.98,North,359,0.0,0.0,86,0.00,,CLR,0.00,VWS V14.01,2013-03-04 11:26:00,
2013-03-04 06:31:00,17.8,14.1,29.98,North,359,0.0,0.0,85,0.00,,CLR,0.00,VWS V14.01,2013-03-04 11:31:00,
2013-03-04 06:36:00,17.7,14.0,29.98,North,359,0.0,0.0,85,0.00,,CLR,0.00,VWS V14.01,2013-03-04 11:36:00,
2013-03-04 06:45:00,18.0,14.5,29.98,North,359,0.0,0.0,86,0.00,,CLR,0.00,VWS V14.01,2013-03-04 11:45:00,
2013-03-04 06:51:00,17.8,14.3,29.98,North,359,0.0,0.0,86,0.00,,CLR,0.00,VWS V14.01,2013-03-04 11:51:00,
2013-03-04 06:56:00,17.8,14.3,29.98,North,359,0.0,0.0,86,0.00,,CLR,0.00,VWS V14.01,2013-03-04 11:56:00,
2013-03-04 07:01:00,17.8,14.3,29.98,North,359,0.0,0.0,86,0.00,,CLR,0.00,VWS V14.01,2013-03-04 12:01:00,
2013-03-04 07:11:00,17.2,13.5,29.98,North,359,0.0,0.0,85,0.00,,CLR,0.00,VWS V14.01,2013-03-04 12:11:00,
2013-03-04 07:16:00,17.2,13.7,29.99,North,359,0.0,0.0,86,0.00,,CLR,0.00,VWS V14.01,2013-03-04 12:16:00,
2013-03-04 07:21:00,17.3,13.8,29.99,North,359,0.0,0.0,86,0.00,,CLR,0.00,VWS V14.01,2013-03-04 12:21:00,
2013-03-04 07:26:00,17.7,14.2,29.99,North,359,0.0,0.0,86,0.00,,CLR,0.00,VWS V14.01,2013-03-04 12:26:00,
2013-03-04 07:31:00,18.0,14.5,29.99,North,359,0.0,0.0,86,0.00,,CLR,0.00,VWS V14.01,2013-03-04 12:31:00,
2013-03-04 07:36:00,18.4,15.2,29.99,North,359,0.0,0.0,87,0.00,,CLR,0.00,VWS V14.01,2013-03-04 12:36:00,
2013-03-04 07:41:00,18.8,15.6,29.99,North,359,0.0,0.0,87,0.00,,CLR,0.00,VWS V14.01,2013-03-04 12:41:00,
2013-03-04 07:46:00,19.2,16.0,29.99,North,359,0.0,0.0,87,0.00,,CLR,0.00,VWS V14.01,2013-03-04 12:46:00,
2013-03-04 07:51:00,19.4,16.2,29.99,North,359,0.0,1.0,87,0.00,,CLR,0.00,VWS V14.01,2013-03-04 12:51:00,
2013-03-04 07:56:00,19.7,16.2,29.99,North,7,2.0,4.0,86,0.00,,CLR,0.00,VWS V14.01,2013-03-04 12:56:00,
2013-03-04 08:01:00,20.0,16.8,29.98,North,8,2.0,3.0,87,0.00,,CLR,0.00,VWS V14.01,2013-03-04 13:01:00,
2013-03-04 08:11:00,20.6,17.4,29.98,North,8,0.0,1.0,87,0.00,,CLR,0.00,VWS V14.01,2013-03-04 13:11:00,
2013-03-04 08:16:00,21.0,17.8,29.99,North,8,0.0,2.0,87,0.00,,CLR,0.00,VWS V14.01,2013-03-04 13:16:00,
2013-03-04 08:21:00,21.4,18.1,29.99,North,8,0.0,0.0,87,0.00,,CLR,0.00,VWS V14.01,2013-03-04 13:21:00,
2013-03-04 08:26:00,21.9,18.6,29.99,North,8,0.0,1.0,87,0.00,,CLR,0.00,VWS V14.01,2013-03-04 13:26:00,
2013-03-04 08:31:00,22.4,19.1,29.99,North,8,0.0,0.0,87,0.00,,CLR,0.00,VWS V14.01,2013-03-04 13:31:00,
2013-03-04 08:36:00,23.0,19.5,29.99,North,10,2.0,2.0,86,0.00,,CLR,0.00,VWS V14.01,2013-03-04 13:36:00,
2013-03-04 08:41:00,23.3,19.7,29.99,North,11,2.0,3.0,86,0.00,,CLR,0.00,VWS V14.01,2013-03-04 13:41:00,
2013-03-04 08:46:00,23.8,20.2,29.99,NNE,14,2.0,2.0,86,0.00,,CLR,0.00,VWS V14.01,2013-03-04 13:46:00,
2013-03-04 08:51:00,24.2,20.4,29.99,NE,54,2.0,6.0,85,0.00,,CLR,0.00,VWS V14.01,2013-03-04 13:51:00,
2013-03-04 09:01:00,25.4,20.7,29.98,ENE,65,2.0,6.0,82,0.00,,CLR,0.00,VWS V14.01,2013-03-04 14:01:00,
2013-03-04 09:06:00,26.0,21.0,29.98,ENE,66,0.0,5.0,81,0.00,,CLR,0.00,VWS V14.01,2013-03-04 14:06:00,
2013-03-04 09:11:00,26.3,20.7,29.98,East,83,3.0,5.0,79,0.00,,CLR,0.00,VWS V14.01,2013-03-04 14:11:00,
2013-03-04 09:21:00,27.2,20.0,29.99,ESE,116,6.0,7.0,74,0.00,,CLR,0.00,VWS V14.01,2013-03-04 14:21:00,
2013-03-04 09:26:00,27.6,19.8,29.99,ESE,114,1.0,7.0,72,0.00,,CLR,0.00,VWS V14.01,2013-03-04 14:26:00,
2013-03-04 09:31:00,28.1,19.6,29.99,ESE,114,7.0,8.0,70,0.00,,CLR,0.00,VWS V14.01,2013-03-04 14:31:00,
2013-03-04 09:41:00,28.4,18.9,29.99,ESE,110,7.0,7.0,67,0.00,,CLR,0.00,VWS V14.01,2013-03-04 14:41:00,
2013-03-04 09:46:00,28.5,18.2,29.98,ESE,104,6.0,7.0,65,0.00,,CLR,0.00,VWS V14.01,2013-03-04 14:46:00,
2013-03-04 09:51:00,29.0,18.7,29.98,ESE,110,5.0,7.0,65,0.00,,CLR,0.00,VWS V14.01,2013-03-04 14:51:00,
2013-03-04 09:56:00,29.0,18.7,29.98,ESE,123,2.0,8.0,65,0.00,,CLR,0.00,VWS V14.01,2013-03-04 14:56:00,
2013-03-04 10:01:00,29.3,18.6,29.98,ESE,119,6.0,8.0,64,0.00,,CLR,0.00,VWS V14.01,2013-03-04 15:01:00,
2013-03-04 10:11:00,29.7,18.3,29.98,ESE,120,2.0,8.0,62,0.00,,CLR,0.00,VWS V14.01,2013-03-04 15:11:00,
2013-03-04 10:16:00,30.0,18.6,29.98,SE,127,5.0,6.0,62,0.00,,CLR,0.00,VWS V14.01,2013-03-04 15:16:00,
2013-03-04 10:25:00,30.6,18.4,29.98,ESE,110,4.0,6.0,60,0.00,,CLR,0.00,VWS V14.01,2013-03-04 15:25:00,
2013-03-04 10:31:00,30.9,18.7,29.98,ESE,112,5.0,6.0,60,0.00,,CLR,0.00,VWS V14.01,2013-03-04 15:31:00,
2013-03-04 10:40:00,31.3,18.2,29.98,ESE,116,1.0,6.0,58,0.00,,CLR,0.00,VWS V14.01,2013-03-04 15:40:00,
2013-03-04 10:46:00,31.8,19.1,29.97,ESE,117,0.0,4.0,59,0.00,,CLR,0.00,VWS V14.01,2013-03-04 15:46:00,
2013-03-04 10:51:00,31.8,18.3,29.97,ESE,120,3.0,7.0,57,0.00,,CLR,0.00,VWS V14.01,2013-03-04 15:51:00,
2013-03-04 10:56:00,31.8,18.3,29.97,ESE,120,2.0,5.0,57,0.00,,CLR,0.00,VWS V14.01,2013-03-04 15:56:00,
2013-03-04 11:01:00,32.4,18.9,29.97,ESE,106,0.0,5.0,57,0.00,,CLR,0.00,VWS V14.01,2013-03-04 16:01:00,
2013-03-04 11:11:00,32.4,18.5,29.97,ESE,112,0.0,6.0,56,0.00,,CLR,0.00,VWS V14.01,2013-03-04 16:11:00,
2013-03-04 11:20:00,32.7,17.5,29.97,ESE,112,0.0,6.0,53,0.00,,CLR,0.00,VWS V14.01,2013-03-04 16:20:00,
2013-03-04 11:26:00,32.4,17.6,29.97,ESE,114,3.0,6.0,54,0.00,,CLR,0.00,VWS V14.01,2013-03-04 16:26:00,
2013-03-04 11:31:00,32.5,17.3,29.96,ESE,120,2.0,8.0,53,0.00,,CLR,0.00,VWS V14.01,2013-03-04 16:31:00,
2013-03-04 11:36:00,32.5,17.3,29.96,ESE,113,0.0,6.0,53,0.00,,CLR,0.00,VWS V14.01,2013-03-04 16:36:00,
2013-03-04 11:41:00,32.5,18.1,29.96,SE,124,0.0,7.0,55,0.00,,CLR,0.00,VWS V14.01,2013-03-04 16:41:00,
2013-03-04 11:46:00,33.2,18.4,29.95,ESE,119,6.0,7.0,54,0.00,,CLR,0.00,VWS V14.01,2013-03-04 16:46:00,
2013-03-04 11:56:00,32.5,17.7,29.95,SE,126,1.0,6.0,54,0.00,,CLR,0.00,VWS V14.01,2013-03-04 16:56:00,
2013-03-04 12:01:00,32.8,17.6,29.95,SE,128,0.0,7.0,53,0.00,,CLR,0.00,VWS V14.01,2013-03-04 17:01:00,
2013-03-04 12:11:00,32.7,17.9,29.95,ESE,116,6.0,7.0,54,0.00,,CLR,0.00,VWS V14.01,2013-03-04 17:11:00,
2013-03-04 12:16:00,32.9,17.2,29.95,ESE,114,5.0,6.0,52,0.00,,CLR,0.00,VWS V14.01,2013-03-04 17:16:00,
2013-03-04 12:25:00,33.2,17.0,29.95,ESE,114,0.0,8.0,51,0.00,,CLR,0.00,VWS V14.01,2013-03-04 17:25:00,
2013-03-04 12:31:00,33.7,18.0,29.94,SSE,167,1.0,8.0,52,0.00,,CLR,0.00,VWS V14.01,2013-03-04 17:31:00,
2013-03-04 12:41:00,33.7,17.5,29.94,SE,126,6.0,8.0,51,0.00,,CLR,0.00,VWS V14.01,2013-03-04 17:41:00,
2013-03-04 12:51:00,33.7,18.0,29.94,ESE,123,1.0,8.0,52,0.00,,CLR,0.00,VWS V14.01,2013-03-04 17:51:00,
2013-03-04 12:56:00,35.2,18.4,29.94,SE,131,5.0,10.0,50,0.00,,CLR,0.00,VWS V14.01,2013-03-04 17:56:00,
2013-03-04 13:01:00,36.6,18.8,29.93,ESE,110,7.0,8.0,48,0.00,,CLR,0.00,VWS V14.01,2013-03-04 18:01:00,
2013-03-04 13:06:00,37.3,18.9,29.93,ESE,123,3.0,8.0,47,0.00,,CLR,0.00,VWS V14.01,2013-03-04 18:06:00,
2013-03-04 13:11:00,36.8,17.5,29.93,ESE,116,3.0,12.0,45,0.00,,CLR,0.00,VWS V14.01,2013-03-04 18:11:00,
2013-03-04 13:16:00,36.8,17.5,29.92,ESE,109,7.0,8.0,45,0.00,,CLR,0.00,VWS V14.01,2013-03-04 18:16:00,
2013-03-04 13:21:00,37.8,17.9,29.92,ESE,103,6.0,7.0,44,0.00,,CLR,0.00,VWS V14.01,2013-03-04 18:21:00,
2013-03-04 13:31:00,36.5,17.7,29.92,ESE,117,8.0,11.0,46,0.00,,CLR,0.00,VWS V14.01,2013-03-04 18:31:00,
2013-03-04 13:36:00,36.3,17.0,29.92,SE,124,6.0,9.0,45,0.00,,CLR,0.00,VWS V14.01,2013-03-04 18:36:00,
2013-03-04 13:41:00,36.6,18.3,29.92,ESE,123,9.0,12.0,47,0.00,,CLR,0.00,VWS V14.01,2013-03-04 18:41:00,
2013-03-04 13:46:00,36.5,17.7,29.92,ESE,106,6.0,9.0,46,0.00,,CLR,0.00,VWS V14.01,2013-03-04 18:46:00,
2013-03-04 13:51:00,36.5,17.7,29.92,ESE,112,7.0,12.0,46,0.00,,CLR,0.00,VWS V14.01,2013-03-04 18:51:00,
2013-03-04 13:56:00,36.5,17.2,29.92,ESE,119,7.0,8.0,45,0.00,,CLR,0.00,VWS V14.01,2013-03-04 18:56:00,
2013-03-04 14:01:00,36.6,17.8,29.91,East,93,5.0,8.0,46,0.00,,CLR,0.00,VWS V14.01,2013-03-04 19:01:00,
2013-03-04 14:11:00,37.2,18.8,29.91,ESE,103,6.0,10.0,47,0.00,,CLR,0.00,VWS V14.01,2013-03-04 19:11:00,
2013-03-04 14:16:00,37.0,18.2,29.91,East,88,5.0,10.0,46,0.00,,CLR,0.00,VWS V14.01,2013-03-04 19:16:00,
2013-03-04 14:21:00,37.6,18.7,29.91,ESE,117,8.0,9.0,46,0.00,,CLR,0.00,VWS V14.01,2013-03-04 19:21:00,
2013-03-04 14:26:00,36.8,18.0,29.91,ESE,103,5.0,10.0,46,0.00,,CLR,0.00,VWS V14.01,2013-03-04 19:26:00,
2013-03-04 14:31:00,37.0,18.2,29.90,SE,128,6.0,10.0,46,0.00,,CLR,0.00,VWS V14.01,2013-03-04 19:31:00,
2013-03-04 14:36:00,36.9,18.6,29.90,ESE,114,5.0,8.0,47,0.00,,CLR,0.00,VWS V14.01,2013-03-04 19:36:00,
2013-03-04 14:46:00,38.0,18.6,29.90,SE,145,3.0,7.0,45,0.00,,CLR,0.00,VWS V14.01,2013-03-04 19:46:00,
2013-03-04 14:51:00,38.9,18.9,29.90,ESE,110,3.0,9.0,44,0.00,,CLR,0.00,VWS V14.01,2013-03-04 19:51:00,
2013-03-04 15:01:00,38.5,18.0,29.89,ESE,116,2.0,10.0,43,0.00,,CLR,0.00,VWS V14.01,2013-03-04 20:01:00,
2013-03-04 15:06:00,38.2,19.3,29.89,ESE,110,6.0,8.0,46,0.00,,CLR,0.00,VWS V14.01,2013-03-04 20:06:00,
2013-03-04 15:11:00,37.5,18.6,29.89,SE,127,2.0,9.0,46,0.00,,CLR,0.00,VWS V14.01,2013-03-04 20:11:00,
2013-03-04 15:16:00,37.3,19.4,29.89,ESE,116,11.0,11.0,48,0.00,,CLR,0.00,VWS V14.01,2013-03-04 20:16:00,
2013-03-04 15:21:00,37.3,19.4,29.89,ESE,109,0.0,11.0,48,0.00,,CLR,0.00,VWS V14.01,2013-03-04 20:21:00,
2013-03-04 15:31:00,37.0,18.7,29.88,SSE,154,4.0,9.0,47,0.00,,CLR,0.00,VWS V14.01,2013-03-04 20:31:00,
2013-03-04 15:36:00,36.8,18.5,29.88,ESE,116,8.0,10.0,47,0.00,,CLR,0.00,VWS V14.01,2013-03-04 20:36:00,
2013-03-04 15:41:00,36.5,18.2,29.88,ESE,113,6.0,10.0,47,0.00,,CLR,0.00,VWS V14.01,2013-03-04 20:41:00,
2013-03-04 15:46:00,36.5,18.2,29.88,SE,126,6.0,7.0,47,0.00,,CLR,0.00,VWS V14.01,2013-03-04 20:46:00,
2013-03-04 15:51:00,36.2,16.9,29.88,ESE,121,6.0,10.0,45,0.00,,CLR,0.00,VWS V14.01,2013-03-04 20:51:00,
2013-03-04 15:56:00,35.9,17.1,29.88,SE,124,6.0,10.0,46,0.00,,CLR,0.00,VWS V14.01,2013-03-04 20:56:00,
2013-03-04 16:06:00,35.8,17.1,29.88,SE,138,5.0,8.0,46,0.00,,CLR,0.00,VWS V14.01,2013-03-04 21:06:00,
2013-03-04 16:11:00,35.6,16.9,29.88,ESE,114,7.0,10.0,46,0.00,,CLR,0.00,VWS V14.01,2013-03-04 21:11:00,
2013-03-04 16:16:00,35.6,16.4,29.88,ESE,116,6.0,9.0,45,0.00,,CLR,0.00,VWS V14.01,2013-03-04 21:16:00,
2013-03-04 16:21:00,35.6,16.4,29.88,ESE,120,5.0,10.0,45,0.00,,CLR,0.00,VWS V14.01,2013-03-04 21:21:00,
2013-03-04 16:26:00,35.8,16.5,29.88,ESE,116,6.0,10.0,45,0.00,,CLR,0.00,VWS V14.01,2013-03-04 21:26:00,
2013-03-04 16:36:00,35.8,18.0,29.88,ESE,114,7.0,9.0,48,0.00,,CLR,0.00,VWS V14.01,2013-03-04 21:36:00,
2013-03-04 16:41:00,35.5,17.8,29.88,ESE,121,10.0,11.0,48,0.00,,CLR,0.00,VWS V14.01,2013-03-04 21:41:00,
2013-03-04 16:46:00,35.3,18.1,29.88,ESE,121,8.0,12.0,49,0.00,,CLR,0.00,VWS V14.01,2013-03-04 21:46:00,
2013-03-04 16:51:00,35.5,18.7,29.88,ESE,121,7.0,8.0,50,0.00,,CLR,0.00,VWS V14.01,2013-03-04 21:51:00,
2013-03-04 17:01:00,35.5,18.7,29.88,ESE,109,5.0,9.0,50,0.00,,CLR,0.00,VWS V14.01,2013-03-04 22:01:00,
2013-03-04 17:06:00,35.5,19.2,29.88,SE,126,11.0,11.0,51,0.00,,CLR,0.00,VWS V14.01,2013-03-04 22:06:00,
2013-03-04 17:16:00,35.2,18.0,29.87,SE,126,10.0,10.0,49,0.00,,CLR,0.00,VWS V14.01,2013-03-04 22:16:00,
2013-03-04 17:26:00,34.9,18.2,29.87,ESE,103,6.0,10.0,50,0.00,,CLR,0.00,VWS V14.01,2013-03-04 22:26:00,
2013-03-04 17:31:00,34.9,18.2,29.87,ESE,114,6.0,10.0,50,0.00,,CLR,0.00,VWS V14.01,2013-03-04 22:31:00,
2013-03-04 17:36:00,34.7,18.4,29.87,ESE,104,7.0,10.0,51,0.00,,CLR,0.00,VWS V14.01,2013-03-04 22:36:00,
2013-03-04 17:41:00,34.7,18.4,29.87,ESE,103,8.0,11.0,51,0.00,,CLR,0.00,VWS V14.01,2013-03-04 22:41:00,
2013-03-04 17:46:00,34.7,18.4,29.87,East,100,6.0,8.0,51,0.00,,CLR,0.00,VWS V14.01,2013-03-04 22:46:00,
2013-03-04 17:51:00,34.6,18.8,29.87,East,96,2.0,7.0,52,0.00,,CLR,0.00,VWS V14.01,2013-03-04 22:51:00,
2013-03-04 17:56:00,34.6,18.8,29.87,ESE,103,2.0,7.0,52,0.00,,CLR,0.00,VWS V14.01,2013-03-04 22:56:00,
2013-03-04 18:05:00,34.6,18.8,29.86,East,86,5.0,7.0,52,0.00,,CLR,0.00,VWS V14.01,2013-03-04 23:05:00,
2013-03-04 18:10:00,34.6,18.8,29.86,East,95,3.0,7.0,52,0.00,,CLR,0.00,VWS V14.01,2013-03-04 23:10:00,
2013-03-04 18:16:00,34.4,19.0,29.86,East,97,2.0,6.0,53,0.00,,CLR,0.00,VWS V14.01,2013-03-04 23:16:00,
2013-03-04 18:21:00,34.4,19.0,29.86,ESE,104,3.0,7.0,53,0.00,,OVC100,0.00,VWS V14.01,2013-03-04 23:21:00,
2013-03-04 18:31:00,34.3,18.5,29.86,East,95,5.0,7.0,52,0.00,,OVC100,0.00,VWS V14.01,2013-03-04 23:31:00,
2013-03-04 18:36:00,34.3,18.1,29.86,ESE,104,2.0,8.0,51,0.00,,OVC100,0.00,VWS V14.01,2013-03-04 23:36:00,
2013-03-04 18:41:00,34.1,17.9,29.86,East,82,3.0,7.0,51,0.00,,OVC100,0.00,VWS V14.01,2013-03-04 23:41:00,
2013-03-04 18:46:00,34.1,18.3,29.86,East,96,2.0,6.0,52,0.00,,OVC100,0.00,VWS V14.01,2013-03-04 23:46:00,
2013-03-04 18:51:00,34.1,18.3,29.86,ESE,113,3.0,8.0,52,0.00,,OVC100,0.00,VWS V14.01,2013-03-04 23:51:00,
2013-03-04 19:01:00,34.0,18.7,29.86,ESE,103,6.0,8.0,53,0.00,,OVC100,0.00,VWS V14.01,2013-03-05 00:01:00,
2013-03-04 19:06:00,34.0,19.1,29.86,ESE,102,5.0,8.0,54,0.00,,OVC100,0.00,VWS V14.01,2013-03-05 00:06:00,
2013-03-04 19:16:00,33.7,19.3,29.86,East,89,2.0,11.0,55,0.00,,OVC100,0.00,VWS V14.01,2013-03-05 00:16:00,
2013-03-04 19:26:00,33.1,20.7,29.86,ESE,102,2.0,7.0,60,0.00,,OVC100,0.00,VWS V14.01,2013-03-05 00:26:00,
2013-03-04 19:36:00,32.8,21.2,29.87,ESE,107,2.0,7.0,62,0.00,,OVC100,0.00,VWS V14.01,2013-03-05 00:36:00,
2013-03-04 19:41:00,32.8,21.2,29.87,ESE,119,6.0,7.0,62,0.00,,OVC100,0.00,VWS V14.01,2013-03-05 00:41:00,
2013-03-04 19:46:00,32.8,21.2,29.88,ESE,116,5.0,7.0,62,0.00,,OVC100,0.00,VWS V14.01,2013-03-05 00:46:00,
2013-03-04 19:51:00,32.8,21.2,29.88,ESE,114,3.0,7.0,62,0.00,,OVC100,0.00,VWS V14.01,2013-03-05 00:51:00,
2013-03-04 19:56:00,32.8,21.6,29.88,ESE,113,1.0,6.0,63,0.00,,OVC100,0.00,VWS V14.01,2013-03-05 00:56:00,
2013-03-04 20:01:00,32.9,21.7,29.88,ESE,113,3.0,5.0,63,0.00,,OVC100,0.00,VWS V14.01,2013-03-05 01:01:00,
2013-03-04 20:11:00,32.9,21.7,29.88,ESE,112,4.0,6.0,63,0.00,,OVC100,0.00,VWS V14.01,2013-03-05 01:11:00,
2013-03-04 20:16:00,32.8,22.0,29.88,ESE,109,2.0,6.0,64,0.00,,OVC100,0.00,VWS V14.01,2013-03-05 01:16:00,
2013-03-04 20:21:00,32.5,22.1,29.88,SE,130,3.0,8.0,65,0.00,,OVC080,0.00,VWS V14.01,2013-03-05 01:21:00,
2013-03-04 20:26:00,32.4,22.3,29.88,ESE,123,6.0,8.0,66,0.00,,OVC080,0.00,VWS V14.01,2013-03-05 01:26:00,
2013-03-04 20:36:00,32.1,22.8,29.89,East,90,3.0,7.0,68,0.00,,OVC080,0.00,VWS V14.01,2013-03-05 01:36:00,
2013-03-04 20:41:00,31.9,22.9,29.89,East,97,5.0,7.0,69,0.00,,OVC080,0.00,VWS V14.01,2013-03-05 01:41:00,
2013-03-04 20:46:00,31.9,22.9,29.89,East,92,2.0,6.0,69,0.00,,OVC080,0.00,VWS V14.01,2013-03-05 01:46:00,
2013-03-04 20:51:00,31.9,23.2,29.89,SE,126,8.0,8.0,70,0.00,,OVC080,0.00,VWS V14.01,2013-03-05 01:51:00,
2013-03-04 20:56:00,31.9,22.9,29.89,ESE,104,4.0,13.0,69,0.00,,OVC080,0.00,VWS V14.01,2013-03-05 01:56:00,
2013-03-04 21:01:00,32.1,23.1,29.90,ESE,120,6.0,9.0,69,0.00,,OVC080,0.00,VWS V14.01,2013-03-05 02:01:00,
2013-03-04 21:06:00,31.9,23.2,29.90,ESE,107,7.0,11.0,70,0.00,,OVC080,0.00,VWS V14.01,2013-03-05 02:06:00,
2013-03-04 21:11:00,31.8,23.5,29.90,ESE,117,5.0,10.0,71,0.00,,OVC080,0.00,VWS V14.01,2013-03-05 02:11:00,
2013-03-04 21:16:00,31.5,23.9,29.89,ESE,114,5.0,10.0,73,0.00,,OVC080,0.00,VWS V14.01,2013-03-05 02:16:00,
2013-03-04 21:21:00,31.0,24.0,29.89,ESE,110,3.0,8.0,75,0.00,,OVC055,0.00,VWS V14.01,2013-03-05 02:21:00,
2013-03-04 21:26:00,30.7,24.4,29.89,ESE,112,8.0,8.0,77,0.00,,OVC055,0.00,VWS V14.01,2013-03-05 02:26:00,
2013-03-04 21:31:00,30.6,24.6,29.89,ESE,119,5.0,8.0,78,0.00,,OVC055,0.00,VWS V14.01,2013-03-05 02:31:00,
2013-03-04 21:36:00,30.6,24.9,29.89,ESE,114,7.0,7.0,79,0.00,,OVC055,0.00,VWS V14.01,2013-03-05 02:36:00,
2013-03-04 21:41:00,30.4,25.0,29.89,ESE,103,3.0,9.0,80,0.00,,OVC055,0.00,VWS V14.01,2013-03-05 02:41:00,
2013-03-04 21:46:00,30.3,25.2,29.90,ESE,102,6.0,11.0,81,0.00,,OVC055,0.00,VWS V14.01,2013-03-05 02:46:00,
2013-03-04 21:51:00,30.1,25.3,29.90,ESE,106,5.0,7.0,82,0.00,,OVC055,0.00,VWS V14.01,2013-03-05 02:51:00,
2013-03-04 21:56:00,30.0,25.5,29.90,East,89,6.0,11.0,83,0.00,,OVC055,0.00,VWS V14.01,2013-03-05 02:56:00,
2013-03-04 22:01:00,29.8,25.6,29.89,East,93,5.0,11.0,84,0.00,,OVC055,0.00,VWS V14.01,2013-03-05 03:01:00,
2013-03-04 22:06:00,29.8,25.9,29.89,ESE,102,7.0,11.0,85,0.00,,OVC055,0.00,VWS V14.01,2013-03-05 03:06:00,
2013-03-04 22:11:00,29.8,25.9,29.89,East,82,4.0,8.0,85,0.00,,OVC055,0.00,VWS V14.01,2013-03-05 03:11:00,
2013-03-04 22:16:00,29.8,25.9,29.89,ESE,103,3.0,8.0,85,0.00,,OVC055,0.00,VWS V14.01,2013-03-05 03:16:00,
2013-03-04 22:21:00,29.8,26.1,29.89,ESE,112,2.0,6.0,86,0.00,,OVC055,0.00,VWS V14.01,2013-03-05 03:21:00,
2013-03-04 22:31:00,29.8,26.1,29.90,ESE,114,5.0,8.0,86,0.00,,OVC055,0.00,VWS V14.01,2013-03-05 03:31:00,
2013-03-04 22:36:00,29.7,26.0,29.90,ESE,116,3.0,7.0,86,0.00,,OVC055,0.00,VWS V14.01,2013-03-05 03:36:00,
2013-03-04 22:46:00,29.7,26.3,29.90,East,100,2.0,5.0,87,0.00,,OVC055,0.00,VWS V14.01,2013-03-05 03:46:00,
2013-03-04 22:51:00,29.7,26.3,29.90,East,100,2.0,4.0,87,0.00,,OVC055,0.00,VWS V14.01,2013-03-05 03:51:00,
2013-03-04 22:56:00,29.7,26.3,29.90,East,96,3.0,6.0,87,0.00,,OVC055,0.00,VWS V14.01,2013-03-05 03:56:00,
2013-03-04 23:01:00,29.7,26.6,29.89,East,96,3.0,7.0,88,0.00,,OVC055,0.00,VWS V14.01,2013-03-05 04:01:00,
2013-03-04 23:11:00,29.7,26.6,29.89,East,88,6.0,8.0,88,0.00,,OVC055,0.00,VWS V14.01,2013-03-05 04:11:00,
2013-03-04 23:21:00,29.5,26.7,29.89,East,95,6.0,7.0,89,0.00,,OVC060,0.00,VWS V14.01,2013-03-05 04:21:00,
2013-03-04 23:26:00,29.5,26.7,29.89,East,83,7.0,8.0,89,0.00,,OVC060,0.00,VWS V14.01,2013-03-05 04:26:00,
2013-03-04 23:36:00,29.5,26.7,29.88,East,83,5.0,8.0,89,0.00,,OVC060,0.00,VWS V14.01,2013-03-05 04:36:00,
2013-03-04 23:41:00,29.5,26.7,29.88,ENE,76,10.0,12.0,89,0.00,,OVC060,0.00,VWS V14.01,2013-03-05 04:41:00,
2013-03-04 23:46:00,29.5,26.7,29.87,ENE,76,10.0,13.0,89,0.00,,OVC060,0.00,VWS V14.01,2013-03-05 04:46:00,
2013-03-04 23:56:00,29.4,26.6,29.87,East,79,7.0,13.0,89,0.00,,OVC060,0.00,VWS V14.01,2013-03-05 04:56:00,